sensor_id;sensor_type;location;lat;lon;timestamp;P1;durP1;ratioP1;P2;durP2;ratioP2
46216;SDS011;47258;59.424;13.482;2024-03-08T00:00:15;9.93;;;3.30;;
46216;SDS011;47258;59.424;13.482;2024-03-08T00:02:46;5.45;;;4.10;;
46216;SDS011;47258;59.424;13.482;2024-03-08T00:05:13;6.68;;;3.88;;
46216;SDS011;47258;59.424;13.482;2024-03-08T00:07:39;12.98;;;4.25;;
46216;SDS011;47258;59.424;13.482;2024-03-08T00:10:07;6.97;;;4.80;;
46216;SDS011;47258;59.424;13.482;2024-03-08T00:12:39;11.98;;;4.85;;
46216;SDS011;47258;59.424;13.482;2024-03-08T00:15:09;7.68;;;5.22;;
46216;SDS011;47258;59.424;13.482;2024-03-08T00:17:36;21.60;;;4.55;;
46216;SDS011;47258;59.424;13.482;2024-03-08T00:20:02;6.28;;;4.28;;
46216;SDS011;47258;59.424;13.482;2024-03-08T00:22:33;14.40;;;5.22;;
46216;SDS011;47258;59.424;13.482;2024-03-08T00:24:59;6.60;;;4.55;;
46216;SDS011;47258;59.424;13.482;2024-03-08T00:27:25;7.03;;;5.32;;
46216;SDS011;47258;59.424;13.482;2024-03-08T00:29:51;7.50;;;4.63;;
46216;SDS011;47258;59.424;13.482;2024-03-08T00:32:17;7.93;;;4.10;;
46216;SDS011;47258;59.424;13.482;2024-03-08T00:34:43;12.18;;;5.10;;
46216;SDS011;47258;59.424;13.482;2024-03-08T00:37:08;7.85;;;4.30;;
46216;SDS011;47258;59.424;13.482;2024-03-08T00:39:35;4.90;;;3.38;;
46216;SDS011;47258;59.424;13.482;2024-03-08T00:42:00;8.25;;;4.38;;
46216;SDS011;47258;59.424;13.482;2024-03-08T00:44:26;6.65;;;4.07;;
46216;SDS011;47258;59.424;13.482;2024-03-08T00:46:52;10.13;;;3.90;;
46216;SDS011;47258;59.424;13.482;2024-03-08T00:49:17;8.02;;;4.70;;
46216;SDS011;47258;59.424;13.482;2024-03-08T00:51:43;6.95;;;3.97;;
46216;SDS011;47258;59.424;13.482;2024-03-08T00:54:09;5.40;;;3.15;;
46216;SDS011;47258;59.424;13.482;2024-03-08T00:56:34;8.85;;;4.20;;
46216;SDS011;47258;59.424;13.482;2024-03-08T00:59:00;4.57;;;3.40;;
46216;SDS011;47258;59.424;13.482;2024-03-08T01:01:27;6.40;;;3.65;;
46216;SDS011;47258;59.424;13.482;2024-03-08T01:03:53;7.53;;;3.28;;
46216;SDS011;47258;59.424;13.482;2024-03-08T01:06:19;7.30;;;3.08;;
46216;SDS011;47258;59.424;13.482;2024-03-08T01:08:45;6.53;;;4.72;;
46216;SDS011;47258;59.424;13.482;2024-03-08T01:11:12;6.40;;;4.07;;
46216;SDS011;47258;59.424;13.482;2024-03-08T01:13:39;8.23;;;3.90;;
46216;SDS011;47258;59.424;13.482;2024-03-08T01:16:04;4.32;;;3.50;;
46216;SDS011;47258;59.424;13.482;2024-03-08T01:18:30;5.05;;;3.13;;
46216;SDS011;47258;59.424;13.482;2024-03-08T01:20:57;6.85;;;2.70;;
46216;SDS011;47258;59.424;13.482;2024-03-08T01:23:22;4.28;;;2.60;;
46216;SDS011;47258;59.424;13.482;2024-03-08T01:25:49;7.50;;;2.95;;
46216;SDS011;47258;59.424;13.482;2024-03-08T01:28:21;4.00;;;3.60;;
46216;SDS011;47258;59.424;13.482;2024-03-08T01:30:50;4.93;;;3.90;;
46216;SDS011;47258;59.424;13.482;2024-03-08T01:33:29;4.78;;;3.75;;
46216;SDS011;47258;59.424;13.482;2024-03-08T01:35:56;3.92;;;2.95;;
46216;SDS011;47258;59.424;13.482;2024-03-08T01:38:23;3.70;;;3.13;;
46216;SDS011;47258;59.424;13.482;2024-03-08T01:40:49;7.03;;;3.47;;
46216;SDS011;47258;59.424;13.482;2024-03-08T01:43:19;8.55;;;3.75;;
46216;SDS011;47258;59.424;13.482;2024-03-08T01:45:46;7.60;;;3.97;;
46216;SDS011;47258;59.424;13.482;2024-03-08T01:48:13;3.70;;;2.75;;
46216;SDS011;47258;59.424;13.482;2024-03-08T01:50:40;4.80;;;3.22;;
46216;SDS011;47258;59.424;13.482;2024-03-08T01:53:06;3.38;;;3.00;;
46216;SDS011;47258;59.424;13.482;2024-03-08T01:55:35;5.00;;;3.22;;
46216;SDS011;47258;59.424;13.482;2024-03-08T01:58:02;3.45;;;2.97;;
46216;SDS011;47258;59.424;13.482;2024-03-08T02:00:30;4.20;;;3.57;;
46216;SDS011;47258;59.424;13.482;2024-03-08T02:02:57;8.35;;;3.42;;
46216;SDS011;47258;59.424;13.482;2024-03-08T02:05:24;3.78;;;2.78;;
46216;SDS011;47258;59.424;13.482;2024-03-08T02:07:50;5.38;;;2.90;;
46216;SDS011;47258;59.424;13.482;2024-03-08T02:10:16;4.57;;;3.67;;
46216;SDS011;47258;59.424;13.482;2024-03-08T02:12:43;3.95;;;3.00;;
46216;SDS011;47258;59.424;13.482;2024-03-08T02:15:09;5.88;;;3.60;;
46216;SDS011;47258;59.424;13.482;2024-03-08T02:17:35;5.18;;;3.08;;
46216;SDS011;47258;59.424;13.482;2024-03-08T02:20:01;5.10;;;3.35;;
46216;SDS011;47258;59.424;13.482;2024-03-08T02:22:28;4.57;;;2.80;;
46216;SDS011;47258;59.424;13.482;2024-03-08T02:24:56;4.43;;;2.65;;
46216;SDS011;47258;59.424;13.482;2024-03-08T02:27:23;4.25;;;3.35;;
46216;SDS011;47258;59.424;13.482;2024-03-08T02:29:55;4.15;;;2.50;;
46216;SDS011;47258;59.424;13.482;2024-03-08T02:32:22;4.00;;;3.33;;
46216;SDS011;47258;59.424;13.482;2024-03-08T02:34:51;3.85;;;3.00;;
46216;SDS011;47258;59.424;13.482;2024-03-08T02:37:21;3.85;;;2.72;;
46216;SDS011;47258;59.424;13.482;2024-03-08T02:39:46;3.50;;;2.95;;
46216;SDS011;47258;59.424;13.482;2024-03-08T02:42:12;6.00;;;3.22;;
46216;SDS011;47258;59.424;13.482;2024-03-08T02:44:42;4.95;;;2.65;;
46216;SDS011;47258;59.424;13.482;2024-03-08T02:47:08;3.90;;;3.03;;
46216;SDS011;47258;59.424;13.482;2024-03-08T02:49:35;4.65;;;2.90;;
46216;SDS011;47258;59.424;13.482;2024-03-08T02:52:02;4.38;;;2.85;;
46216;SDS011;47258;59.424;13.482;2024-03-08T02:54:29;5.20;;;3.33;;
46216;SDS011;47258;59.424;13.482;2024-03-08T02:56:54;5.35;;;3.65;;
46216;SDS011;47258;59.424;13.482;2024-03-08T02:59:20;3.05;;;2.75;;
46216;SDS011;47258;59.424;13.482;2024-03-08T03:01:46;5.00;;;3.20;;
46216;SDS011;47258;59.424;13.482;2024-03-08T03:04:11;5.40;;;2.83;;
46216;SDS011;47258;59.424;13.482;2024-03-08T03:06:37;3.03;;;2.72;;
46216;SDS011;47258;59.424;13.482;2024-03-08T03:09:03;5.05;;;2.97;;
46216;SDS011;47258;59.424;13.482;2024-03-08T03:11:31;3.25;;;2.75;;
46216;SDS011;47258;59.424;13.482;2024-03-08T03:13:57;3.38;;;3.08;;
46216;SDS011;47258;59.424;13.482;2024-03-08T03:16:22;6.00;;;3.08;;
46216;SDS011;47258;59.424;13.482;2024-03-08T03:18:49;4.55;;;2.78;;
46216;SDS011;47258;59.424;13.482;2024-03-08T03:21:15;5.18;;;3.08;;
46216;SDS011;47258;59.424;13.482;2024-03-08T03:23:40;4.15;;;2.55;;
46216;SDS011;47258;59.424;13.482;2024-03-08T03:26:09;5.65;;;3.70;;
46216;SDS011;47258;59.424;13.482;2024-03-08T03:28:38;3.67;;;3.13;;
46216;SDS011;47258;59.424;13.482;2024-03-08T03:31:07;3.22;;;2.88;;
46216;SDS011;47258;59.424;13.482;2024-03-08T03:33:39;5.35;;;2.60;;
46216;SDS011;47258;59.424;13.482;2024-03-08T03:36:05;4.97;;;3.30;;
46216;SDS011;47258;59.424;13.482;2024-03-08T03:38:31;3.72;;;3.13;;
46216;SDS011;47258;59.424;13.482;2024-03-08T03:40:57;7.78;;;3.42;;
46216;SDS011;47258;59.424;13.482;2024-03-08T03:43:29;5.15;;;2.88;;
46216;SDS011;47258;59.424;13.482;2024-03-08T03:45:55;2.85;;;2.47;;
46216;SDS011;47258;59.424;13.482;2024-03-08T03:48:20;4.28;;;2.80;;
46216;SDS011;47258;59.424;13.482;2024-03-08T03:50:46;5.80;;;3.22;;
46216;SDS011;47258;59.424;13.482;2024-03-08T03:53:12;5.68;;;2.97;;
46216;SDS011;47258;59.424;13.482;2024-03-08T03:55:38;6.90;;;3.53;;
46216;SDS011;47258;59.424;13.482;2024-03-08T03:58:04;5.47;;;3.17;;
46216;SDS011;47258;59.424;13.482;2024-03-08T04:00:29;4.45;;;3.25;;
46216;SDS011;47258;59.424;13.482;2024-03-08T04:02:55;5.15;;;2.97;;
46216;SDS011;47258;59.424;13.482;2024-03-08T04:05:24;3.07;;;2.83;;
46216;SDS011;47258;59.424;13.482;2024-03-08T04:07:49;4.13;;;2.80;;
46216;SDS011;47258;59.424;13.482;2024-03-08T04:10:15;5.10;;;3.40;;
46216;SDS011;47258;59.424;13.482;2024-03-08T04:12:41;6.47;;;2.95;;
46216;SDS011;47258;59.424;13.482;2024-03-08T04:15:07;4.68;;;3.13;;
46216;SDS011;47258;59.424;13.482;2024-03-08T04:17:33;5.32;;;2.97;;
46216;SDS011;47258;59.424;13.482;2024-03-08T04:20:03;6.63;;;3.10;;
46216;SDS011;47258;59.424;13.482;2024-03-08T04:22:35;3.47;;;3.17;;
46216;SDS011;47258;59.424;13.482;2024-03-08T04:25:02;6.32;;;2.95;;
46216;SDS011;47258;59.424;13.482;2024-03-08T04:27:28;5.45;;;2.92;;
46216;SDS011;47258;59.424;13.482;2024-03-08T04:29:54;4.22;;;2.58;;
46216;SDS011;47258;59.424;13.482;2024-03-08T04:32:20;6.63;;;2.97;;
46216;SDS011;47258;59.424;13.482;2024-03-08T04:34:47;7.10;;;3.10;;
46216;SDS011;47258;59.424;13.482;2024-03-08T04:37:14;3.33;;;2.60;;
46216;SDS011;47258;59.424;13.482;2024-03-08T04:39:40;6.90;;;2.88;;
46216;SDS011;47258;59.424;13.482;2024-03-08T04:42:05;6.20;;;3.22;;
46216;SDS011;47258;59.424;13.482;2024-03-08T04:44:34;3.15;;;2.50;;
46216;SDS011;47258;59.424;13.482;2024-03-08T04:47:02;5.20;;;2.85;;
46216;SDS011;47258;59.424;13.482;2024-03-08T04:49:27;6.60;;;3.47;;
46216;SDS011;47258;59.424;13.482;2024-03-08T04:51:53;3.75;;;3.00;;
46216;SDS011;47258;59.424;13.482;2024-03-08T04:54:19;3.95;;;2.90;;
46216;SDS011;47258;59.424;13.482;2024-03-08T04:56:44;5.35;;;3.70;;
46216;SDS011;47258;59.424;13.482;2024-03-08T04:59:11;5.68;;;4.00;;
46216;SDS011;47258;59.424;13.482;2024-03-08T05:01:36;4.88;;;3.33;;
46216;SDS011;47258;59.424;13.482;2024-03-08T05:04:03;3.90;;;3.50;;
46216;SDS011;47258;59.424;13.482;2024-03-08T05:06:29;4.68;;;2.20;;
46216;SDS011;47258;59.424;13.482;2024-03-08T05:08:55;4.45;;;2.92;;
46216;SDS011;47258;59.424;13.482;2024-03-08T05:11:21;5.97;;;2.92;;
46216;SDS011;47258;59.424;13.482;2024-03-08T05:13:47;4.57;;;3.28;;
46216;SDS011;47258;59.424;13.482;2024-03-08T05:16:12;5.07;;;2.88;;
46216;SDS011;47258;59.424;13.482;2024-03-08T05:18:40;5.82;;;2.72;;
46216;SDS011;47258;59.424;13.482;2024-03-08T05:21:07;7.88;;;3.25;;
46216;SDS011;47258;59.424;13.482;2024-03-08T05:23:34;5.45;;;2.92;;
46216;SDS011;47258;59.424;13.482;2024-03-08T05:26:00;9.00;;;3.78;;
46216;SDS011;47258;59.424;13.482;2024-03-08T05:28:26;4.22;;;2.53;;
46216;SDS011;47258;59.424;13.482;2024-03-08T05:30:51;4.65;;;2.67;;
46216;SDS011;47258;59.424;13.482;2024-03-08T05:33:17;3.80;;;3.05;;
46216;SDS011;47258;59.424;13.482;2024-03-08T05:35:44;5.25;;;2.78;;
46216;SDS011;47258;59.424;13.482;2024-03-08T05:38:10;2.97;;;2.65;;
46216;SDS011;47258;59.424;13.482;2024-03-08T05:40:37;3.13;;;2.38;;
46216;SDS011;47258;59.424;13.482;2024-03-08T05:43:03;5.95;;;3.30;;
46216;SDS011;47258;59.424;13.482;2024-03-08T05:45:30;3.70;;;3.20;;
46216;SDS011;47258;59.424;13.482;2024-03-08T05:47:56;5.43;;;2.55;;
46216;SDS011;47258;59.424;13.482;2024-03-08T05:50:22;4.07;;;2.95;;
46216;SDS011;47258;59.424;13.482;2024-03-08T05:52:47;5.13;;;2.55;;
46216;SDS011;47258;59.424;13.482;2024-03-08T05:55:13;6.07;;;2.67;;
46216;SDS011;47258;59.424;13.482;2024-03-08T05:57:42;11.32;;;3.63;;
46216;SDS011;47258;59.424;13.482;2024-03-08T06:00:08;9.48;;;3.03;;
46216;SDS011;47258;59.424;13.482;2024-03-08T06:02:40;8.60;;;3.08;;
46216;SDS011;47258;59.424;13.482;2024-03-08T06:05:08;11.35;;;7.07;;
46216;SDS011;47258;59.424;13.482;2024-03-08T06:07:35;6.50;;;3.47;;
46216;SDS011;47258;59.424;13.482;2024-03-08T06:10:01;5.18;;;3.08;;
46216;SDS011;47258;59.424;13.482;2024-03-08T06:12:28;5.15;;;3.60;;
46216;SDS011;47258;59.424;13.482;2024-03-08T06:14:57;6.80;;;3.88;;
46216;SDS011;47258;59.424;13.482;2024-03-08T06:17:23;6.75;;;4.25;;
46216;SDS011;47258;59.424;13.482;2024-03-08T06:19:50;11.02;;;3.80;;
46216;SDS011;47258;59.424;13.482;2024-03-08T06:22:17;6.00;;;3.33;;
46216;SDS011;47258;59.424;13.482;2024-03-08T06:24:44;7.97;;;5.20;;
46216;SDS011;47258;59.424;13.482;2024-03-08T06:27:10;4.85;;;4.15;;
46216;SDS011;47258;59.424;13.482;2024-03-08T06:29:36;5.18;;;3.50;;
46216;SDS011;47258;59.424;13.482;2024-03-08T06:32:02;6.57;;;3.42;;
46216;SDS011;47258;59.424;13.482;2024-03-08T06:34:28;12.98;;;4.93;;
46216;SDS011;47258;59.424;13.482;2024-03-08T06:36:53;6.45;;;2.78;;
46216;SDS011;47258;59.424;13.482;2024-03-08T06:39:25;6.68;;;3.30;;
46216;SDS011;47258;59.424;13.482;2024-03-08T06:41:51;5.70;;;3.95;;
46216;SDS011;47258;59.424;13.482;2024-03-08T06:44:17;4.72;;;2.55;;
46216;SDS011;47258;59.424;13.482;2024-03-08T06:46:44;7.85;;;3.10;;
46216;SDS011;47258;59.424;13.482;2024-03-08T06:49:25;4.57;;;2.85;;
46216;SDS011;47258;59.424;13.482;2024-03-08T06:51:58;9.70;;;3.67;;
46216;SDS011;47258;59.424;13.482;2024-03-08T06:54:27;4.93;;;3.17;;
46216;SDS011;47258;59.424;13.482;2024-03-08T06:57:18;4.20;;;2.38;;
46216;SDS011;47258;59.424;13.482;2024-03-08T06:59:58;2.65;;;2.38;;
46216;SDS011;47258;59.424;13.482;2024-03-08T07:02:26;3.50;;;2.90;;
46216;SDS011;47258;59.424;13.482;2024-03-08T07:05:10;2.90;;;2.47;;
46216;SDS011;47258;59.424;13.482;2024-03-08T07:07:36;4.00;;;2.95;;
46216;SDS011;47258;59.424;13.482;2024-03-08T07:10:02;5.78;;;2.60;;
46216;SDS011;47258;59.424;13.482;2024-03-08T07:12:29;7.70;;;3.35;;
46216;SDS011;47258;59.424;13.482;2024-03-08T07:14:55;5.07;;;2.65;;
46216;SDS011;47258;59.424;13.482;2024-03-08T07:17:23;3.00;;;2.72;;
46216;SDS011;47258;59.424;13.482;2024-03-08T07:19:49;6.70;;;2.83;;
46216;SDS011;47258;59.424;13.482;2024-03-08T07:22:17;3.50;;;2.42;;
46216;SDS011;47258;59.424;13.482;2024-03-08T07:24:53;3.33;;;2.38;;
46216;SDS011;47258;59.424;13.482;2024-03-08T07:27:54;3.78;;;2.10;;
46216;SDS011;47258;59.424;13.482;2024-03-08T07:30:51;5.50;;;2.60;;
46216;SDS011;47258;59.424;13.482;2024-03-08T07:33:40;3.30;;;2.42;;
46216;SDS011;47258;59.424;13.482;2024-03-08T07:36:07;3.40;;;2.50;;
46216;SDS011;47258;59.424;13.482;2024-03-08T07:38:34;8.00;;;4.37;;
46216;SDS011;47258;59.424;13.482;2024-03-08T07:41:00;4.03;;;2.47;;
46216;SDS011;47258;59.424;13.482;2024-03-08T07:43:26;2.90;;;2.60;;
46216;SDS011;47258;59.424;13.482;2024-03-08T07:45:52;4.20;;;2.33;;
46216;SDS011;47258;59.424;13.482;2024-03-08T07:48:20;5.60;;;2.88;;
46216;SDS011;47258;59.424;13.482;2024-03-08T07:50:46;4.38;;;2.95;;
46216;SDS011;47258;59.424;13.482;2024-03-08T07:53:11;4.30;;;2.40;;
46216;SDS011;47258;59.424;13.482;2024-03-08T07:55:37;6.22;;;4.10;;
46216;SDS011;47258;59.424;13.482;2024-03-08T07:58:04;3.35;;;2.25;;
46216;SDS011;47258;59.424;13.482;2024-03-08T08:00:31;4.97;;;2.33;;
46216;SDS011;47258;59.424;13.482;2024-03-08T08:02:57;4.35;;;1.98;;
46216;SDS011;47258;59.424;13.482;2024-03-08T08:05:23;7.03;;;2.30;;
46216;SDS011;47258;59.424;13.482;2024-03-08T08:07:49;3.22;;;2.33;;
46216;SDS011;47258;59.424;13.482;2024-03-08T08:10:18;4.32;;;2.28;;
46216;SDS011;47258;59.424;13.482;2024-03-08T08:12:49;4.78;;;3.25;;
46216;SDS011;47258;59.424;13.482;2024-03-08T08:15:16;13.65;;;3.85;;
46216;SDS011;47258;59.424;13.482;2024-03-08T08:17:43;3.40;;;1.95;;
46216;SDS011;47258;59.424;13.482;2024-03-08T08:20:09;4.55;;;1.75;;
46216;SDS011;47258;59.424;13.482;2024-03-08T08:22:37;5.95;;;2.63;;
46216;SDS011;47258;59.424;13.482;2024-03-08T08:25:08;4.05;;;1.83;;
46216;SDS011;47258;59.424;13.482;2024-03-08T08:27:35;2.53;;;1.75;;
46216;SDS011;47258;59.424;13.482;2024-03-08T08:30:05;3.55;;;2.17;;
46216;SDS011;47258;59.424;13.482;2024-03-08T08:32:34;3.47;;;2.08;;
46216;SDS011;47258;59.424;13.482;2024-03-08T08:35:04;2.95;;;1.80;;
46216;SDS011;47258;59.424;13.482;2024-03-08T08:37:31;2.28;;;1.80;;
46216;SDS011;47258;59.424;13.482;2024-03-08T08:39:57;4.25;;;1.98;;
46216;SDS011;47258;59.424;13.482;2024-03-08T08:42:30;3.17;;;2.13;;
46216;SDS011;47258;59.424;13.482;2024-03-08T08:44:59;2.10;;;1.60;;
46216;SDS011;47258;59.424;13.482;2024-03-08T08:47:31;2.90;;;2.22;;
46216;SDS011;47258;59.424;13.482;2024-03-08T08:50:02;5.20;;;1.80;;
46216;SDS011;47258;59.424;13.482;2024-03-08T08:52:32;2.45;;;1.42;;
46216;SDS011;47258;59.424;13.482;2024-03-08T08:54:59;3.72;;;1.58;;
46216;SDS011;47258;59.424;13.482;2024-03-08T08:57:28;2.28;;;1.77;;
46216;SDS011;47258;59.424;13.482;2024-03-08T09:00:06;2.30;;;1.60;;
46216;SDS011;47258;59.424;13.482;2024-03-08T09:02:40;2.78;;;1.70;;
46216;SDS011;47258;59.424;13.482;2024-03-08T09:05:08;3.55;;;1.52;;
46216;SDS011;47258;59.424;13.482;2024-03-08T09:07:36;12.57;;;1.48;;
46216;SDS011;47258;59.424;13.482;2024-03-08T09:10:04;3.63;;;1.33;;
46216;SDS011;47258;59.424;13.482;2024-03-08T09:12:34;4.10;;;1.83;;
46216;SDS011;47258;59.424;13.482;2024-03-08T09:15:02;1.45;;;1.35;;
46216;SDS011;47258;59.424;13.482;2024-03-08T09:17:33;2.70;;;1.98;;
46216;SDS011;47258;59.424;13.482;2024-03-08T09:20:01;4.57;;;1.63;;
46216;SDS011;47258;59.424;13.482;2024-03-08T09:22:29;1.70;;;1.58;;
46216;SDS011;47258;59.424;13.482;2024-03-08T09:24:58;2.63;;;1.65;;
46216;SDS011;47258;59.424;13.482;2024-03-08T09:27:36;5.03;;;1.90;;
46216;SDS011;47258;59.424;13.482;2024-03-08T09:30:04;7.57;;;2.63;;
46216;SDS011;47258;59.424;13.482;2024-03-08T09:32:38;6.32;;;1.90;;
46216;SDS011;47258;59.424;13.482;2024-03-08T09:35:04;4.72;;;2.28;;
46216;SDS011;47258;59.424;13.482;2024-03-08T09:37:32;3.65;;;2.10;;
46216;SDS011;47258;59.424;13.482;2024-03-08T09:40:00;4.70;;;1.80;;
46216;SDS011;47258;59.424;13.482;2024-03-08T09:42:37;4.47;;;1.80;;
46216;SDS011;47258;59.424;13.482;2024-03-08T09:45:08;1.42;;;1.33;;
46216;SDS011;47258;59.424;13.482;2024-03-08T09:47:41;5.22;;;1.90;;
46216;SDS011;47258;59.424;13.482;2024-03-08T09:50:19;2.70;;;1.98;;
46216;SDS011;47258;59.424;13.482;2024-03-08T09:53:01;4.82;;;2.00;;
46216;SDS011;47258;59.424;13.482;2024-03-08T09:55:53;2.20;;;2.03;;
46216;SDS011;47258;59.424;13.482;2024-03-08T09:58:37;2.05;;;1.40;;
46216;SDS011;47258;59.424;13.482;2024-03-08T10:01:42;6.43;;;1.80;;
46216;SDS011;47258;59.424;13.482;2024-03-08T10:07:05;2.90;;;1.77;;
46216;SDS011;47258;59.424;13.482;2024-03-08T10:09:42;2.22;;;1.60;;
46216;SDS011;47258;59.424;13.482;2024-03-08T10:12:15;3.35;;;1.95;;
46216;SDS011;47258;59.424;13.482;2024-03-08T10:14:44;3.60;;;2.13;;
46216;SDS011;47258;59.424;13.482;2024-03-08T10:17:15;8.27;;;2.22;;
46216;SDS011;47258;59.424;13.482;2024-03-08T10:19:59;3.85;;;1.95;;
46216;SDS011;47258;59.424;13.482;2024-03-08T10:22:43;3.92;;;1.70;;
46216;SDS011;47258;59.424;13.482;2024-03-08T10:25:38;4.45;;;1.70;;
46216;SDS011;47258;59.424;13.482;2024-03-08T10:28:13;7.75;;;2.35;;
46216;SDS011;47258;59.424;13.482;2024-03-08T10:30:49;2.38;;;1.85;;
46216;SDS011;47258;59.424;13.482;2024-03-08T10:33:24;4.85;;;1.75;;
46216;SDS011;47258;59.424;13.482;2024-03-08T10:36:09;4.03;;;1.92;;
46216;SDS011;47258;59.424;13.482;2024-03-08T10:38:38;4.30;;;2.22;;
46216;SDS011;47258;59.424;13.482;2024-03-08T10:41:13;2.55;;;1.55;;
46216;SDS011;47258;59.424;13.482;2024-03-08T10:43:59;7.35;;;2.58;;
46216;SDS011;47258;59.424;13.482;2024-03-08T10:52:52;6.97;;;2.70;;
46216;SDS011;47258;59.424;13.482;2024-03-08T10:55:52;6.07;;;2.15;;
46216;SDS011;47258;59.424;13.482;2024-03-08T10:59:20;3.75;;;1.58;;
46216;SDS011;47258;59.424;13.482;2024-03-08T11:01:57;4.07;;;2.13;;
46216;SDS011;47258;59.424;13.482;2024-03-08T11:10:50;5.50;;;2.08;;
46216;SDS011;47258;59.424;13.482;2024-03-08T11:16:20;1.38;;;1.35;;
46216;SDS011;47258;59.424;13.482;2024-03-08T11:21:37;5.20;;;2.08;;
46216;SDS011;47258;59.424;13.482;2024-03-08T11:24:07;2.50;;;1.70;;
46216;SDS011;47258;59.424;13.482;2024-03-08T11:26:36;2.83;;;2.58;;
46216;SDS011;47258;59.424;13.482;2024-03-08T11:31:50;2.63;;;1.58;;
46216;SDS011;47258;59.424;13.482;2024-03-08T11:34:38;6.20;;;2.15;;
46216;SDS011;47258;59.424;13.482;2024-03-08T11:37:16;4.18;;;2.13;;
46216;SDS011;47258;59.424;13.482;2024-03-08T11:40:01;8.48;;;2.10;;
46216;SDS011;47258;59.424;13.482;2024-03-08T11:42:39;2.85;;;1.88;;
46216;SDS011;47258;59.424;13.482;2024-03-08T11:45:28;3.38;;;1.70;;
46216;SDS011;47258;59.424;13.482;2024-03-08T11:47:55;4.93;;;2.00;;
46216;SDS011;47258;59.424;13.482;2024-03-08T11:50:42;2.38;;;1.70;;
46216;SDS011;47258;59.424;13.482;2024-03-08T11:53:09;4.50;;;1.73;;
46216;SDS011;47258;59.424;13.482;2024-03-08T11:55:37;3.40;;;1.95;;
46216;SDS011;47258;59.424;13.482;2024-03-08T11:58:04;2.10;;;1.58;;
46216;SDS011;47258;59.424;13.482;2024-03-08T12:00:40;2.50;;;1.92;;
46216;SDS011;47258;59.424;13.482;2024-03-08T12:03:17;6.82;;;2.00;;
46216;SDS011;47258;59.424;13.482;2024-03-08T12:05:43;5.40;;;2.25;;
46216;SDS011;47258;59.424;13.482;2024-03-08T12:08:12;3.67;;;2.20;;
46216;SDS011;47258;59.424;13.482;2024-03-08T12:10:38;3.38;;;1.90;;
46216;SDS011;47258;59.424;13.482;2024-03-08T12:13:04;4.03;;;1.85;;
46216;SDS011;47258;59.424;13.482;2024-03-08T12:15:37;3.35;;;1.75;;
46216;SDS011;47258;59.424;13.482;2024-03-08T12:18:04;3.72;;;1.88;;
46216;SDS011;47258;59.424;13.482;2024-03-08T12:20:30;2.08;;;1.45;;
46216;SDS011;47258;59.424;13.482;2024-03-08T12:22:56;6.40;;;2.42;;
46216;SDS011;47258;59.424;13.482;2024-03-08T12:25:25;1.42;;;1.27;;
46216;SDS011;47258;59.424;13.482;2024-03-08T12:28:09;1.85;;;1.27;;
46216;SDS011;47258;59.424;13.482;2024-03-08T12:30:44;4.00;;;1.50;;
46216;SDS011;47258;59.424;13.482;2024-03-08T12:33:12;5.68;;;1.92;;
46216;SDS011;47258;59.424;13.482;2024-03-08T12:35:38;1.63;;;1.52;;
46216;SDS011;47258;59.424;13.482;2024-03-08T12:38:07;5.00;;;1.75;;
46216;SDS011;47258;59.424;13.482;2024-03-08T12:40:33;7.15;;;1.73;;
46216;SDS011;47258;59.424;13.482;2024-03-08T12:43:07;1.42;;;1.33;;
46216;SDS011;47258;59.424;13.482;2024-03-08T12:45:32;3.72;;;1.55;;
46216;SDS011;47258;59.424;13.482;2024-03-08T12:47:58;3.08;;;2.22;;
46216;SDS011;47258;59.424;13.482;2024-03-08T12:50:25;3.10;;;1.58;;
46216;SDS011;47258;59.424;13.482;2024-03-08T12:52:51;6.28;;;2.08;;
46216;SDS011;47258;59.424;13.482;2024-03-08T12:55:20;7.80;;;1.50;;
46216;SDS011;47258;59.424;13.482;2024-03-08T12:57:46;2.28;;;1.70;;
46216;SDS011;47258;59.424;13.482;2024-03-08T13:00:14;1.95;;;1.63;;
46216;SDS011;47258;59.424;13.482;2024-03-08T13:02:48;6.70;;;1.95;;
46216;SDS011;47258;59.424;13.482;2024-03-08T13:05:16;6.03;;;2.20;;
46216;SDS011;47258;59.424;13.482;2024-03-08T13:07:42;4.50;;;1.60;;
46216;SDS011;47258;59.424;13.482;2024-03-08T13:10:14;3.13;;;2.03;;
46216;SDS011;47258;59.424;13.482;2024-03-08T13:12:44;10.02;;;2.28;;
46216;SDS011;47258;59.424;13.482;2024-03-08T13:15:10;1.63;;;1.25;;
46216;SDS011;47258;59.424;13.482;2024-03-08T13:17:40;4.22;;;1.42;;
46216;SDS011;47258;59.424;13.482;2024-03-08T13:20:07;2.67;;;1.65;;
46216;SDS011;47258;59.424;13.482;2024-03-08T13:22:34;5.32;;;1.48;;
46216;SDS011;47258;59.424;13.482;2024-03-08T13:25:00;5.25;;;1.92;;
46216;SDS011;47258;59.424;13.482;2024-03-08T13:27:29;5.22;;;1.88;;
46216;SDS011;47258;59.424;13.482;2024-03-08T13:29:55;3.30;;;2.00;;
46216;SDS011;47258;59.424;13.482;2024-03-08T13:32:21;2.13;;;1.73;;
46216;SDS011;47258;59.424;13.482;2024-03-08T13:34:47;4.63;;;1.95;;
46216;SDS011;47258;59.424;13.482;2024-03-08T13:37:15;4.50;;;1.70;;
46216;SDS011;47258;59.424;13.482;2024-03-08T13:39:42;4.10;;;1.73;;
46216;SDS011;47258;59.424;13.482;2024-03-08T13:42:11;3.22;;;2.13;;
46216;SDS011;47258;59.424;13.482;2024-03-08T13:44:45;3.40;;;1.48;;
46216;SDS011;47258;59.424;13.482;2024-03-08T13:47:12;5.47;;;2.70;;
46216;SDS011;47258;59.424;13.482;2024-03-08T13:49:38;6.50;;;1.95;;
46216;SDS011;47258;59.424;13.482;2024-03-08T13:52:04;5.45;;;1.88;;
46216;SDS011;47258;59.424;13.482;2024-03-08T13:54:31;2.40;;;2.13;;
46216;SDS011;47258;59.424;13.482;2024-03-08T13:56:58;4.78;;;1.95;;
46216;SDS011;47258;59.424;13.482;2024-03-08T13:59:59;5.32;;;1.88;;
46216;SDS011;47258;59.424;13.482;2024-03-08T14:02:45;2.17;;;1.52;;
46216;SDS011;47258;59.424;13.482;2024-03-08T14:05:39;4.80;;;1.50;;
46216;SDS011;47258;59.424;13.482;2024-03-08T14:08:24;5.70;;;1.52;;
46216;SDS011;47258;59.424;13.482;2024-03-08T14:11:29;6.53;;;1.83;;
46216;SDS011;47258;59.424;13.482;2024-03-08T14:14:27;2.70;;;2.03;;
46216;SDS011;47258;59.424;13.482;2024-03-08T14:17:38;3.42;;;1.60;;
46216;SDS011;47258;59.424;13.482;2024-03-08T14:20:33;8.32;;;1.73;;
46216;SDS011;47258;59.424;13.482;2024-03-08T14:23:52;4.90;;;1.80;;
46216;SDS011;47258;59.424;13.482;2024-03-08T14:26:42;3.75;;;1.63;;
46216;SDS011;47258;59.424;13.482;2024-03-08T14:32:14;3.20;;;2.42;;
46216;SDS011;47258;59.424;13.482;2024-03-08T14:35:17;3.35;;;1.98;;
46216;SDS011;47258;59.424;13.482;2024-03-08T14:38:22;3.97;;;1.30;;
46216;SDS011;47258;59.424;13.482;2024-03-08T14:41:13;5.20;;;1.75;;
46216;SDS011;47258;59.424;13.482;2024-03-08T14:44:11;4.38;;;2.28;;
46216;SDS011;47258;59.424;13.482;2024-03-08T14:47:08;4.22;;;2.60;;
46216;SDS011;47258;59.424;13.482;2024-03-08T14:49:35;4.95;;;1.55;;
46216;SDS011;47258;59.424;13.482;2024-03-08T14:52:03;2.42;;;1.33;;
46216;SDS011;47258;59.424;13.482;2024-03-08T14:54:50;2.00;;;1.25;;
46216;SDS011;47258;59.424;13.482;2024-03-08T14:57:16;3.72;;;1.45;;
46216;SDS011;47258;59.424;13.482;2024-03-08T14:59:44;3.20;;;1.50;;
46216;SDS011;47258;59.424;13.482;2024-03-08T15:02:11;1.50;;;1.40;;
46216;SDS011;47258;59.424;13.482;2024-03-08T15:04:42;2.00;;;1.42;;
46216;SDS011;47258;59.424;13.482;2024-03-08T15:07:23;3.88;;;1.77;;
46216;SDS011;47258;59.424;13.482;2024-03-08T15:09:50;4.22;;;1.90;;
46216;SDS011;47258;59.424;13.482;2024-03-08T15:12:16;3.10;;;1.67;;
46216;SDS011;47258;59.424;13.482;2024-03-08T15:14:42;5.90;;;1.98;;
46216;SDS011;47258;59.424;13.482;2024-03-08T15:17:09;6.28;;;1.77;;
46216;SDS011;47258;59.424;13.482;2024-03-08T15:19:45;4.85;;;2.00;;